Главная страница
METAR-TAF:

METAR-TAF

Аэропорты :

Бамако, Мали

широта: 12-32N, долгота: 007-57W, высота над уровнем моря: 380 м

Текущие метеонаблюдения

Эта сводка был подготовлена 41 минут назад, в 07:00 UTC
Ветер 8 Узел от северо-восточный
Температура 18°C
Влажность 28%
Давление 1014 hPa
Видимость: 8000 м

METAR: GABS 240700Z 05008KT 8000 NSC 18/M01 Q1014 NOSIG

Время: 07:41 (07:41 UTC)

Прогноз

Эта сводка был подготовлена 2 часа и 41 минут назад, в 05:00 UTC
Прогноз действительный с 24-го 06 UTC до 25-го 12 UTC
Ветер 10 Узел от северо-восточный
Видимость: 8000 м
Вероятность 40% :
временами
С 24-го 06 UTC до 24-го 15 UTC
Видимость: 4000 м
пыль, взвешенная над обширной территорией

TAF: GABS 240500Z 2406/2512 05010KT 8000 NSC PROB40 TEMPO 2406/2415 4000 DU

Метеонаблюдения и прогнозы для более 4000 аэропортов (сводки METAR и TAF).

Имеющиеся станции представлены на карте желтыми и красными точками.

Чтобы увидеть название станции, наведите на нее мышь.

Затем щелкните, чтобы увидеть метеонаблюдения и метеопрогнозы.

Управление картой: чтобы увеличить масштаб, щелкните зеленые кнопки с черным крестиком; чтобы уменьшить масштаб, щелкните зеленую кнопку с тире; для просмотра соседних карт щелкайте зеленые стрелки.


METAR-TAF: